Observations for AUCKLAND INTL A, New Zealand (NZAA)

NZAA 230500Z AUTO 21005KT 9999 OVC033/// 16/12 Q1025 NOSIG  
NZAA 230430Z AUTO 21006KT 9999 OVC035/// 16/12 Q1025 NOSIG  
NZAA 230400Z AUTO 22007KT 9999 OVC036/// 16/12 Q1025 NOSIG  
NZAA 230330Z AUTO 21007KT 9999 OVC037/// 16/12 Q1025 NOSIG  
NZAA 230300Z AUTO 22008KT 9999 OVC034/// 16/12 Q1025 NOSIG  
NZAA 230230Z AUTO 21004KT 9999 OVC036/// 17/12 Q1025 NOSIG  
NZAA 230200Z AUTO 20006KT 9999 OVC039/// 17/12 Q1025 NOSIG  
NZAA 230130Z AUTO 20008KT 9999 OVC036/// 17/11 Q1025 NOSIG  
NZAA 230100Z AUTO 23004KT 200V260 9999 BKN036/// 16/12 Q1025 NOSIG  
NZAA 230030Z AUTO 23003KT 9999 FEW029/// BKN036/// 16/13 Q1025 NOSIG
NZAA 230000Z AUTO 20003KT 9999 BKN036/// 16/12 Q1025 NOSIG  
NZAA 222330Z AUTO 21003KT 9999 OVC035/// 16/12 Q1026 NOSIG  
NZAA 222300Z AUTO 20001KT 9999 BKN037/// 15/13 Q1026 NOSIG  
NZAA 222230Z AUTO 22003KT 9999 BKN036/// 15/13 Q1026 NOSIG  
NZAA 222200Z AUTO 23004KT 9999 FEW033/// 15/13 Q1025 NOSIG  
NZAA 222130Z AUTO 25004KT 9999 BKN034/// 15/13 Q1025 NOSIG  
NZAA 222100Z AUTO 24003KT 9999 -RA FEW026/// BKN033/// 14/13 Q1025 NOSIG
NZAA 222030Z AUTO 31001KT 9999 NCD 12/12 Q1025 NOSIG
NZAA 222000Z AUTO 11002KT 9999 NCD 12/12 Q1025 NOSIG
NZAA 221930Z AUTO 00000KT 5000 BR SCT032/// 12/12 Q1025 TEMPO 9999 NSW  
NZAA 221900Z AUTO 03001KT 9999 BKN030/// BKN036/// OVC043/// 11/11 Q1025 NOSIG  
NZAA 221830Z AUTO 09001KT 4800 BR FEW022/// BKN033/// 11/11 Q1025 NOSIG 
NZAA 221800Z AUTO 30002KT 9999 BKN036/// 12/12 Q1024 NOSIG  
NZAA 221730Z AUTO 00000KT 9000 FEW032/// 12/12 Q1024 NOSIG  
NZAA 221700Z AUTO 06001KT 9999 FEW023/// SCT031/// OVC040/// 12/12 Q1024 NOSIG  
NZAA 221630Z AUTO 12001KT 9999 FEW006/// BKN026/// 13/13 Q1024 TEMPO BKN012 
NZAA 221600Z AUTO 05002KT 4500 -RA BR FEW007/// BKN019/// OVC046/// 13/12 Q1024 TEMPO 9999 TEMPO BKN012 
NZAA 221530Z AUTO 00000KT 6000 -RA FEW012/// BKN022/// BKN029/// 13/13 Q1024 BECMG 9999 TEMPO 4000 SHRA BKN012  
NZAA 221500Z AUTO 17001KT 9999 -RA FEW006/// BKN025/// BKN038/// 13/12 Q1024 TEMPO 4000 SHRA BKN012 
NZAA 221430Z AUTO 36003KT 9999 BKN027/// BKN040/// BKN048/// 12/12 Q1024 NOSIG  
NZAA 221400Z AUTO 00000KT 9999 FEW014/// SCT024/// BKN029/// 13/12 Q1024 NOSIG  
NZAA 221330Z AUTO 22002KT 9999 -DZ FEW005/// BKN011/// BKN019/// 13/12 Q1024 TEMPO FEW011   
NZAA 221300Z AUTO 13001KT 9999 SCT011/// BKN040/// 12/12 Q1025 TEMPO BKN011 
NZAA 221230Z AUTO 22005KT 150V280 9999 NCD 13/12 Q1025 NOSIG
NZAA 221200Z AUTO 29005KT 9999 FEW038/// 12/12 Q1025 NOSIG  
NZAA 221130Z AUTO 28007KT 9999 BKN041/// 13/12 Q1025 NOSIG  
NZAA 221100Z AUTO 31005KT 9999 NCD 12/11 Q1025 NOSIG
NZAA 221030Z AUTO 31005KT 260V330 9999 FEW039/// 12/12 Q1025 NOSIG  
NZAA 221000Z AUTO 31004KT 9999 NCD 12/11 Q1025 NOSIG
NZAA 220930Z AUTO 29003KT 9999 NCD 12/11 Q1025 NOSIG
NZAA 220900Z AUTO 29004KT 9999 FEW044/// 12/10 Q1025 NOSIG  
NZAA 220830Z AUTO 26004KT 9999 FEW042/// 13/11 Q1025 NOSIG  
NZAA 220800Z AUTO 23004KT 9999 FEW038/// 13/12 Q1025 NOSIG  
NZAA 220730Z AUTO 21004KT 9999 SCT039/// 13/12 Q1025 NOSIG  
NZAA 220700Z AUTO 22005KT 9999 BKN039/// BKN046/// 13/12 Q1025 NOSIG
NZAA 220630Z AUTO 20005KT 9999 FEW043/// 13/12 Q1025 NOSIG  
NZAA 220600Z AUTO 25004KT 9999 FEW019/// 13/12 Q1025 NOSIG  
NZAA 220530Z AUTO 24007KT 9999 FEW020/// SCT030/// OVC036/// 14/13 Q1025 NOSIG  
NZAA 220500Z AUTO 24006KT 9999 VCSH FEW029/// BKN034/// 15/13 Q1024 NOSIG   
NZAA 220430Z AUTO 24005KT 9999 FEW018/// SCT039/// 16/13 Q1024 NOSIG